Port Jefferson, Ohio
Current Conditions -  °F | °C
As of 9:10 AM on Sunday 25 Jan 2015 (Local Time) from KEDJ Reporting Station
Clear Clear  
Wind Chill: 27°   Ceiling: Unl
Heat Index: 32°   Visibility: 5mi
Dew Point: 32°   Wind: 5mph
Humidity: 100%   Direction: 140°SE
Pressure: 29.74"   Gusts: NA
Location:  40.33°N, 84.09°W
Report Text: KEDJ 251410Z AUTO 14004KT 5SM CLR 00/00 A2974 RMK AO1
Loading
Personal Weather Stations






























Interactive Weather Map New forecast layout! Learn more

10-Day Weather Forecast

Advertisements
Track Severe Weather on mobile